createdAt,value
2022-11-05T00:00:36.315Z,54.64
2022-11-05T00:02:57.146Z,54.65
2022-11-05T00:05:18.034Z,54.79
2022-11-05T00:07:47.972Z,54.60
2022-11-05T00:09:51.227Z,54.33
2022-11-05T00:12:11.617Z,54.26
2022-11-05T00:14:33.350Z,54.15
2022-11-05T00:16:44.515Z,53.94
2022-11-05T00:19:06.633Z,54.18
2022-11-05T00:21:29.119Z,54.06
2022-11-05T00:23:49.898Z,53.74
2022-11-05T00:25:56.811Z,53.89
2022-11-05T00:29:01.814Z,53.91
2022-11-05T00:31:11.957Z,55.27
2022-11-05T00:33:15.196Z,56.19
2022-11-05T00:35:19.659Z,56.29
2022-11-05T00:37:21.581Z,56.00
2022-11-05T00:39:23.955Z,55.95
2022-11-05T00:41:25.973Z,55.85
2022-11-05T00:43:48.137Z,55.66
2022-11-05T00:45:50.101Z,55.38
2022-11-05T00:48:10.442Z,55.50
2022-11-05T00:50:13.296Z,55.71
2022-11-05T00:52:33.735Z,56.14
2022-11-05T00:54:35.895Z,56.13
2022-11-05T00:56:37.937Z,56.19
2022-11-05T00:58:40.090Z,56.63
2022-11-05T01:00:45.536Z,56.62
2022-11-05T01:02:47.607Z,56.74
2022-11-05T01:04:49.920Z,56.84
2022-11-05T01:06:55.441Z,57.19
2022-11-05T01:08:57.544Z,57.00
2022-11-05T01:10:59.757Z,57.12
2022-11-05T01:13:01.818Z,57.20
2022-11-05T01:15:04.557Z,57.47
2022-11-05T01:17:06.839Z,57.73
2022-11-05T01:19:10.697Z,57.69
2022-11-05T01:21:14.542Z,57.93
2022-11-05T01:23:17.370Z,57.90
2022-11-05T01:25:19.864Z,57.84
2022-11-05T01:27:22.012Z,57.73
2022-11-05T01:29:24.366Z,57.46
2022-11-05T01:31:26.981Z,57.04
2022-11-05T01:33:29.231Z,57.02
2022-11-05T01:35:31.781Z,56.67
2022-11-05T01:37:35.457Z,56.94
2022-11-05T01:39:37.653Z,56.96
2022-11-05T01:41:39.745Z,56.69
2022-11-05T01:43:50.963Z,57.43
2022-11-05T01:45:57.980Z,56.81
2022-11-05T01:48:05.881Z,56.66
2022-11-05T01:50:20.593Z,56.67
2022-11-05T01:52:24.462Z,56.78
2022-11-05T01:54:31.053Z,57.32
2022-11-05T01:56:44.249Z,56.76
2022-11-05T01:59:00.574Z,56.77
2022-11-05T02:01:02.851Z,56.35
2022-11-05T02:03:05.331Z,56.37
2022-11-05T02:05:09.428Z,56.08
2022-11-05T02:07:12.087Z,56.02
2022-11-05T02:09:29.680Z,56.36
2022-11-05T02:11:32.024Z,56.47
2022-11-05T02:13:35.799Z,56.90
2022-11-05T02:15:56.659Z,57.49
2022-11-05T02:22:35.608Z,58.20
2022-11-05T02:25:11.562Z,57.92
2022-11-05T02:27:26.699Z,57.86
2022-11-05T02:30:31.970Z,58.30
2022-11-05T02:33:00.475Z,59.19
2022-11-05T02:35:21.116Z,58.81
2022-11-05T02:37:51.557Z,59.49
2022-11-05T02:40:05.446Z,59.29
2022-11-05T02:42:16.221Z,59.50
2022-11-05T02:44:57.345Z,59.00
2022-11-05T02:47:18.425Z,59.78
2022-11-05T02:49:38.685Z,59.62
2022-11-05T02:52:05.158Z,59.77
2022-11-05T02:54:24.371Z,59.42
2022-11-05T02:56:37.209Z,60.01
2022-11-05T02:58:39.418Z,59.32
2022-11-05T03:00:47.192Z,59.33
2022-11-05T03:02:49.547Z,59.42
2022-11-05T03:04:51.876Z,59.03
2022-11-05T03:07:05.035Z,60.34
2022-11-05T03:09:51.885Z,60.14
2022-11-05T03:12:21.636Z,60.17
2022-11-05T03:14:50.030Z,60.61
2022-11-05T03:17:10.467Z,60.47
2022-11-05T03:19:41.366Z,60.48
2022-11-05T03:21:51.228Z,60.76
2022-11-05T03:24:19.320Z,61.43
2022-11-05T03:27:00.680Z,61.07
2022-11-05T03:29:09.064Z,61.25
2022-11-05T03:31:14.947Z,60.81
2022-11-05T03:33:22.718Z,61.65
2022-11-05T03:35:28.908Z,62.06
2022-11-05T03:37:35.223Z,61.84
2022-11-05T03:39:44.301Z,63.17
2022-11-05T03:41:51.276Z,63.49
2022-11-05T03:43:58.905Z,63.25
2022-11-05T03:46:12.509Z,63.74
2022-11-05T03:48:16.839Z,62.83
2022-11-05T03:50:21.902Z,62.78
2022-11-05T03:52:28.693Z,62.59
2022-11-05T03:54:30.950Z,62.56
2022-11-05T03:57:05.968Z,63.27
2022-11-05T03:59:11.089Z,63.10
2022-11-05T04:01:13.436Z,63.37
2022-11-05T04:03:16.041Z,63.34
2022-11-05T04:05:18.212Z,62.92
2022-11-05T04:07:38.888Z,61.97
2022-11-05T04:09:59.608Z,62.91
2022-11-05T04:12:20.138Z,62.69
2022-11-05T04:15:25.062Z,62.71
2022-11-05T04:17:27.263Z,62.35
2022-11-05T04:19:49.488Z,62.35
2022-11-05T04:22:10.333Z,63.19
2022-11-05T04:24:13.028Z,63.53
2022-11-05T04:26:15.612Z,63.55
2022-11-05T04:28:17.745Z,63.97
2022-11-05T04:30:20.809Z,63.92
2022-11-05T04:32:22.912Z,63.90
2022-11-05T04:34:25.333Z,65.16
2022-11-05T04:36:27.455Z,65.38
2022-11-05T04:38:29.609Z,65.48
2022-11-05T04:40:31.805Z,65.34
2022-11-05T04:42:34.102Z,65.64
2022-11-05T04:44:36.460Z,65.27
2022-11-05T04:46:38.614Z,66.01
2022-11-05T04:48:40.757Z,65.58
2022-11-05T04:50:42.837Z,65.83
2022-11-05T04:52:44.886Z,65.79
2022-11-05T04:54:46.856Z,65.73
2022-11-05T04:56:51.756Z,65.92
2022-11-05T04:58:53.858Z,65.79
2022-11-05T05:00:56.193Z,65.78
2022-11-05T05:03:00.790Z,65.44
2022-11-05T05:05:03.753Z,65.37
2022-11-05T05:07:06.182Z,65.26
2022-11-05T05:09:08.175Z,65.31
2022-11-05T05:11:13.131Z,65.09
2022-11-05T05:13:17.685Z,65.08
2022-11-05T05:15:19.662Z,65.20
2022-11-05T05:17:22.072Z,65.28
2022-11-05T05:19:25.041Z,65.01
2022-11-05T05:21:39.121Z,64.97
2022-11-05T05:23:41.499Z,64.87
2022-11-05T05:25:43.561Z,64.82
2022-11-05T05:27:46.060Z,65.07
2022-11-05T05:29:48.770Z,64.53
2022-11-05T05:31:50.913Z,64.27
2022-11-05T05:33:54.502Z,64.62
2022-11-05T05:36:00.409Z,65.62
2022-11-05T05:38:02.507Z,65.44
2022-11-05T05:40:04.675Z,65.55
2022-11-05T05:42:06.862Z,65.45
2022-11-05T05:44:09.192Z,65.63
2022-11-05T05:46:14.152Z,65.31
2022-11-05T05:48:16.483Z,65.64
2022-11-05T05:50:18.685Z,65.21
2022-11-05T05:52:26.941Z,65.79
2022-11-05T05:54:32.697Z,65.60
2022-11-05T05:56:37.116Z,65.47
2022-11-05T05:58:39.763Z,65.67
2022-11-05T06:00:42.984Z,65.42
2022-11-05T06:02:45.483Z,65.52
2022-11-05T06:04:47.573Z,65.18
2022-11-05T06:06:49.864Z,65.21
2022-11-05T06:08:51.785Z,65.21
2022-11-05T06:10:54.014Z,65.30
2022-11-05T06:12:56.555Z,65.14
2022-11-05T06:14:58.752Z,65.24
2022-11-05T06:17:01.112Z,65.02
2022-11-05T06:19:03.332Z,65.26
2022-11-05T06:21:10.778Z,65.85
2022-11-05T06:23:13.234Z,65.28
2022-11-05T06:25:17.881Z,65.48
2022-11-05T06:27:20.014Z,65.70
2022-11-05T06:29:22.027Z,66.00
2022-11-05T06:31:24.647Z,66.47
2022-11-05T06:33:30.569Z,66.33
2022-11-05T06:35:32.623Z,66.56
2022-11-05T06:37:37.758Z,66.93
2022-11-05T06:39:42.363Z,66.27
2022-11-05T06:42:12.002Z,66.17
2022-11-05T06:44:07.213Z,65.84
2022-11-05T06:46:10.931Z,66.09
2022-11-05T06:48:12.922Z,65.79
2022-11-05T06:50:15.037Z,65.82
2022-11-05T06:52:17.559Z,65.42
2022-11-05T06:54:19.832Z,65.61
2022-11-05T06:56:22.226Z,65.52
2022-11-05T06:58:24.886Z,65.55
2022-11-05T07:00:27.028Z,65.65
2022-11-05T07:02:29.093Z,65.62
2022-11-05T07:04:31.068Z,65.68
2022-11-05T07:06:37.022Z,65.57
2022-11-05T07:08:39.718Z,65.40
2022-11-05T07:10:41.866Z,65.94
2022-11-05T07:12:44.285Z,66.04
2022-11-05T07:14:46.830Z,66.34
2022-11-05T07:16:48.925Z,66.74
2022-11-05T07:18:52.950Z,66.79
2022-11-05T07:20:55.259Z,66.65
2022-11-05T07:23:12.181Z,67.21
2022-11-05T07:25:14.334Z,67.11
2022-11-05T07:27:17.358Z,66.93
2022-11-05T07:29:19.384Z,66.72
2022-11-05T07:31:21.713Z,66.62
2022-11-05T07:33:23.796Z,66.54
2022-11-05T07:35:27.502Z,66.13
2022-11-05T07:37:29.748Z,65.93
2022-11-05T07:39:33.802Z,66.06
2022-11-05T07:41:36.200Z,66.17
2022-11-05T07:43:38.340Z,66.60
2022-11-05T07:45:40.527Z,66.81
2022-11-05T07:47:57.465Z,67.17
2022-11-05T07:49:59.657Z,67.41
2022-11-05T07:52:01.788Z,67.02
2022-11-05T07:55:19.201Z,67.64
2022-11-05T07:57:21.441Z,67.53
2022-11-05T07:59:23.379Z,67.38
2022-11-05T08:01:25.792Z,67.25
2022-11-05T08:03:28.005Z,66.86
2022-11-05T08:05:30.850Z,67.81
2022-11-05T08:07:33.023Z,67.56
2022-11-05T08:09:35.121Z,66.68
2022-11-05T08:11:37.426Z,66.07
2022-11-05T08:13:39.281Z,65.58
2022-11-05T08:15:43.063Z,65.17
2022-11-05T08:17:45.535Z,65.21
2022-11-05T08:19:47.829Z,64.43
2022-11-05T08:21:49.642Z,64.44
2022-11-05T08:23:51.761Z,64.56
2022-11-05T08:25:55.513Z,64.16
2022-11-05T08:28:00.305Z,64.47
2022-11-05T08:30:03.188Z,63.88
2022-11-05T08:32:05.342Z,64.09
2022-11-05T08:34:32.168Z,63.37
2022-11-05T08:36:35.321Z,64.13
2022-11-05T08:38:37.705Z,63.66
2022-11-05T08:40:40.617Z,63.93
2022-11-05T08:42:42.852Z,64.10
2022-11-05T08:44:44.923Z,63.61
2022-11-05T08:46:47.317Z,64.02
2022-11-05T08:48:50.137Z,63.99
2022-11-05T08:50:52.470Z,64.15
2022-11-05T08:52:55.199Z,64.47
2022-11-05T08:54:57.231Z,64.03
2022-11-05T08:56:59.444Z,64.27
2022-11-05T08:59:01.660Z,64.11
2022-11-05T09:01:05.668Z,63.74
2022-11-05T09:03:09.534Z,64.04
2022-11-05T09:05:12.058Z,63.84
2022-11-05T09:07:14.124Z,63.77
2022-11-05T09:09:16.288Z,63.63
2022-11-05T09:11:18.387Z,63.63
2022-11-05T09:13:20.785Z,63.66
2022-11-05T09:15:23.669Z,64.02
2022-11-05T09:17:25.791Z,63.85
2022-11-05T09:19:28.292Z,64.57
2022-11-05T09:21:31.492Z,64.16
2022-11-05T09:23:33.581Z,64.32
2022-11-05T09:25:35.996Z,63.81
2022-11-05T09:27:38.416Z,63.49
2022-11-05T09:29:42.009Z,63.15
2022-11-05T09:31:44.333Z,63.12
2022-11-05T09:33:46.513Z,63.05
2022-11-05T09:35:48.883Z,62.67
2022-11-05T09:37:50.956Z,62.21
2022-11-05T09:39:53.287Z,62.13
2022-11-05T09:42:02.333Z,61.72
2022-11-05T09:44:11.913Z,61.53
2022-11-05T09:46:22.650Z,60.45
2022-11-05T09:48:29.022Z,60.73
2022-11-05T09:50:35.307Z,59.62
2022-11-05T09:52:38.463Z,60.08
2022-11-05T09:54:41.628Z,59.68
2022-11-05T09:56:44.721Z,58.87
2022-11-05T09:59:02.579Z,58.38
2022-11-05T10:01:12.024Z,58.53
2022-11-05T10:03:20.283Z,58.32
2022-11-05T10:05:27.249Z,58.67
2022-11-05T10:07:34.351Z,58.46
2022-11-05T10:09:51.672Z,57.39
2022-11-05T10:12:08.487Z,56.75
2022-11-05T10:14:38.967Z,57.32
2022-11-05T10:16:46.203Z,58.05
2022-11-05T10:18:54.443Z,57.27
2022-11-05T10:20:57.210Z,57.90
2022-11-05T10:23:03.017Z,58.30
2022-11-05T10:25:18.074Z,58.34
2022-11-05T10:27:32.253Z,58.29
2022-11-05T10:29:36.263Z,57.90
2022-11-05T10:32:05.877Z,57.08
2022-11-05T10:34:13.886Z,57.36
2022-11-05T10:36:41.956Z,56.20
2022-11-05T10:38:43.914Z,56.82
2022-11-05T10:41:10.492Z,55.57
2022-11-05T10:43:18.763Z,56.43
2022-11-05T10:45:36.326Z,55.78
2022-11-05T10:47:46.376Z,55.76
2022-11-05T10:50:01.857Z,56.12
2022-11-05T10:52:22.837Z,56.14
2022-11-05T10:54:33.764Z,56.22
2022-11-05T10:56:39.288Z,56.18
2022-11-05T10:58:58.602Z,54.43
2022-11-05T11:01:10.755Z,54.69
2022-11-05T11:03:53.342Z,54.46
2022-11-05T11:06:01.573Z,54.24
2022-11-05T11:08:24.697Z,53.56
2022-11-05T11:10:28.235Z,54.63
2022-11-05T11:12:45.641Z,53.18
2022-11-05T11:15:13.300Z,52.93
2022-11-05T11:17:18.076Z,53.80
2022-11-05T11:19:36.834Z,52.72
2022-11-05T11:21:41.792Z,54.31
2022-11-05T11:27:35.213Z,54.56
2022-11-05T11:29:42.891Z,54.96
2022-11-05T11:31:55.899Z,54.20
2022-11-05T11:34:21.502Z,53.89
2022-11-05T11:36:33.475Z,53.33
2022-11-05T11:38:37.261Z,54.46
2022-11-05T11:40:39.741Z,53.99
2022-11-05T11:42:46.845Z,52.19
2022-11-05T11:44:50.782Z,52.27
2022-11-05T11:46:55.993Z,52.24
2022-11-05T11:48:59.207Z,52.45
2022-11-05T11:51:21.081Z,51.75
2022-11-05T11:53:39.348Z,51.76
2022-11-05T11:55:41.537Z,52.61
2022-11-05T11:57:44.924Z,52.79
2022-11-05T12:00:07.690Z,53.58
2022-11-05T12:02:24.758Z,53.24
2022-11-05T12:04:46.480Z,51.34
2022-11-05T12:07:21.677Z,51.31
2022-11-05T12:09:30.114Z,50.96
2022-11-05T12:12:35.589Z,50.61
2022-11-05T12:14:59.111Z,51.14
2022-11-05T12:17:22.071Z,51.63
2022-11-05T12:20:00.367Z,50.55
2022-11-05T12:22:29.479Z,50.88
2022-11-05T12:25:01.368Z,49.93
2022-11-05T12:27:21.811Z,50.84
2022-11-05T12:29:59.989Z,50.26
2022-11-05T12:32:43.092Z,50.31
2022-11-05T12:35:06.844Z,51.14
2022-11-05T12:37:37.599Z,51.03
2022-11-05T12:39:59.940Z,50.81
2022-11-05T12:42:18.256Z,50.93
2022-11-05T12:44:43.946Z,50.33
2022-11-05T12:47:04.927Z,51.02
2022-11-05T12:49:19.932Z,50.79
2022-11-05T12:52:16.317Z,51.85
2022-11-05T12:54:40.215Z,52.38
2022-11-05T12:56:47.469Z,52.81
2022-11-05T12:59:00.911Z,52.83
2022-11-05T13:01:11.591Z,52.81
2022-11-05T13:03:20.000Z,53.20
2022-11-05T13:05:36.753Z,53.22
2022-11-05T13:07:46.767Z,53.60
2022-11-05T13:09:55.712Z,53.21
2022-11-05T13:12:03.468Z,53.54
2022-11-05T13:14:21.812Z,53.82
2022-11-05T13:16:30.742Z,53.23
2022-11-05T13:18:44.227Z,53.54
2022-11-05T13:20:51.216Z,53.49
2022-11-05T13:23:00.198Z,53.77
2022-11-05T13:25:10.987Z,54.07
2022-11-05T13:27:31.008Z,54.25
2022-11-05T13:29:52.770Z,54.43
2022-11-05T13:32:01.537Z,55.06
2022-11-05T13:34:10.218Z,55.27
2022-11-05T13:36:49.760Z,55.88
2022-11-05T13:39:10.013Z,55.71
2022-11-05T13:41:41.201Z,56.40
2022-11-05T13:44:09.621Z,56.51
2022-11-05T13:46:11.613Z,56.36
2022-11-05T13:48:16.474Z,56.00
2022-11-05T13:50:56.572Z,56.17
2022-11-05T13:53:23.494Z,56.50
2022-11-05T13:56:11.511Z,56.53
2022-11-05T13:58:26.530Z,56.22
2022-11-05T14:00:33.535Z,56.29
2022-11-05T14:02:51.596Z,55.98
2022-11-05T14:05:00.973Z,55.26
2022-11-05T14:07:37.914Z,55.17
2022-11-05T14:09:41.696Z,55.08
2022-11-05T14:11:50.375Z,54.74
2022-11-05T14:13:58.052Z,54.96
2022-11-05T14:16:20.058Z,55.15
2022-11-05T14:18:27.554Z,55.45
2022-11-05T14:20:32.415Z,54.87
2022-11-05T14:22:34.346Z,54.72
2022-11-05T14:24:44.400Z,55.14
2022-11-05T14:27:06.286Z,55.46
2022-11-05T14:29:10.959Z,55.29
2022-11-05T14:31:18.697Z,55.53
2022-11-05T14:33:27.131Z,55.85
2022-11-05T14:35:38.278Z,54.98
2022-11-05T14:37:42.579Z,55.52
2022-11-05T14:39:48.082Z,55.45
2022-11-05T14:42:03.357Z,55.25
2022-11-05T14:44:08.232Z,55.48
2022-11-05T14:46:11.694Z,55.56
2022-11-05T14:48:31.218Z,56.00
2022-11-05T14:50:40.824Z,55.79
2022-11-05T14:53:26.294Z,55.64
2022-11-05T14:55:40.519Z,55.13
2022-11-05T14:58:03.552Z,55.69
2022-11-05T15:00:26.376Z,55.85
2022-11-05T15:02:35.622Z,55.82
2022-11-05T15:04:49.444Z,55.64
2022-11-05T15:07:03.394Z,55.84
2022-11-05T15:09:13.603Z,55.71
2022-11-05T15:11:27.807Z,55.95
2022-11-05T15:13:36.771Z,56.52
2022-11-05T15:15:44.843Z,56.58
2022-11-05T15:18:09.703Z,56.64
2022-11-05T15:20:22.448Z,56.41
2022-11-05T15:22:36.315Z,56.82
2022-11-05T15:24:42.137Z,56.35
2022-11-05T15:27:05.028Z,56.67
2022-11-05T15:29:17.453Z,57.12
2022-11-05T15:31:34.288Z,56.66
2022-11-05T15:33:36.410Z,56.60
2022-11-05T15:35:41.596Z,56.33
2022-11-05T15:37:53.434Z,56.75
2022-11-05T15:39:58.032Z,56.61
2022-11-05T15:42:04.792Z,56.23
2022-11-05T15:44:06.760Z,56.49
2022-11-05T15:46:19.909Z,57.14
2022-11-05T15:48:22.005Z,56.44
2022-11-05T15:50:23.917Z,56.74
2022-11-05T15:52:34.991Z,56.89
2022-11-05T15:54:37.777Z,56.67
2022-11-05T15:56:57.554Z,56.84
2022-11-05T15:59:06.032Z,56.39
2022-11-05T16:04:47.785Z,56.71
2022-11-05T16:06:52.810Z,56.46
2022-11-05T16:08:55.074Z,56.48
2022-11-05T16:11:01.241Z,57.23
2022-11-05T16:13:29.199Z,57.08
2022-11-05T16:15:33.063Z,57.03
2022-11-05T16:17:38.121Z,57.02
2022-11-05T16:19:42.372Z,57.08
2022-11-05T16:21:55.067Z,57.13
2022-11-05T16:23:59.890Z,56.90
2022-11-05T16:26:02.091Z,57.13
2022-11-05T16:28:20.304Z,57.22
2022-11-05T16:30:23.028Z,57.23
2022-11-05T16:32:33.793Z,57.29
2022-11-05T16:35:00.285Z,57.46
2022-11-05T16:37:03.544Z,57.56
2022-11-05T16:39:05.570Z,57.08
2022-11-05T16:41:22.962Z,57.76
2022-11-05T16:43:26.772Z,57.37
2022-11-05T16:45:28.951Z,57.43
2022-11-05T16:47:31.755Z,57.24
2022-11-05T16:49:33.926Z,57.56
2022-11-05T16:51:36.147Z,57.67
2022-11-05T16:53:38.442Z,57.81
2022-11-05T16:55:42.981Z,57.51
2022-11-05T16:57:49.639Z,58.19
2022-11-05T17:04:17.047Z,58.69
2022-11-05T17:06:20.968Z,58.36
2022-11-05T17:08:23.092Z,58.66
2022-11-05T17:10:26.860Z,58.12
2022-11-05T17:12:28.888Z,58.24
2022-11-05T17:14:31.111Z,58.40
2022-11-05T17:16:33.177Z,58.29
2022-11-05T17:18:35.335Z,58.19
2022-11-05T17:20:40.999Z,58.36
2022-11-05T17:22:43.171Z,58.21
2022-11-05T17:24:45.106Z,58.33
2022-11-05T17:26:49.603Z,58.69
2022-11-05T17:28:51.950Z,58.95
2022-11-05T17:30:54.014Z,59.12
2022-11-05T17:33:22.937Z,59.18
2022-11-05T17:35:25.484Z,59.13
2022-11-05T17:37:27.472Z,58.78
2022-11-05T17:39:31.898Z,58.94
2022-11-05T17:41:34.179Z,58.84
2022-11-05T17:43:36.227Z,58.88
2022-11-05T17:45:49.796Z,58.78
2022-11-05T17:47:52.145Z,58.90
2022-11-05T17:49:54.043Z,58.71
2022-11-05T17:51:56.257Z,58.95
2022-11-05T17:53:58.329Z,59.31
2022-11-05T17:56:00.270Z,58.72
2022-11-05T17:58:02.581Z,58.67
2022-11-05T18:00:04.939Z,58.91
2022-11-05T18:02:13.442Z,58.77
2022-11-05T18:04:15.519Z,58.89
2022-11-05T18:06:17.498Z,58.87
2022-11-05T18:08:19.539Z,58.71
2022-11-05T18:10:22.645Z,59.19
2022-11-05T18:12:27.560Z,58.94
2022-11-05T18:14:29.875Z,59.13
2022-11-05T18:16:33.428Z,59.37
2022-11-05T18:18:35.568Z,59.25
2022-11-05T18:20:38.458Z,59.42
2022-11-05T18:22:40.563Z,59.05
2022-11-05T18:24:42.730Z,59.32
2022-11-05T18:26:44.735Z,59.06
2022-11-05T18:28:46.962Z,59.33
2022-11-05T18:30:49.193Z,59.57
2022-11-05T18:32:51.586Z,59.29
2022-11-05T18:34:53.581Z,59.13
2022-11-05T18:36:56.647Z,59.35
2022-11-05T18:39:01.639Z,58.90
2022-11-05T18:41:07.508Z,58.81
2022-11-05T18:43:09.900Z,59.24
2022-11-05T18:45:12.826Z,59.34
2022-11-05T18:47:17.719Z,58.86
2022-11-05T18:49:20.050Z,59.30
2022-11-05T18:51:22.547Z,59.65
2022-11-05T18:53:24.688Z,59.57
2022-11-05T18:55:26.637Z,59.60
2022-11-05T18:57:29.177Z,59.77
2022-11-05T18:59:39.786Z,59.36
2022-11-05T19:01:42.488Z,59.76
2022-11-05T19:03:45.143Z,59.58
2022-11-05T19:05:47.306Z,59.65
2022-11-05T19:07:49.696Z,59.57
2022-11-05T19:09:52.168Z,59.63
2022-11-05T19:11:57.077Z,60.26
2022-11-05T19:13:59.341Z,60.00
2022-11-05T19:16:01.587Z,60.14
2022-11-05T19:18:06.462Z,60.06
2022-11-05T19:20:09.402Z,60.28
2022-11-05T19:22:11.617Z,60.38
2022-11-05T19:24:17.208Z,60.11
2022-11-05T19:26:28.595Z,60.29
2022-11-05T19:28:31.023Z,60.45
2022-11-05T19:30:35.462Z,60.41
2022-11-05T19:32:37.294Z,60.90
2022-11-05T19:34:39.574Z,60.53
2022-11-05T19:36:42.704Z,61.14
2022-11-05T19:38:44.815Z,61.13
2022-11-05T19:40:46.691Z,61.14
2022-11-05T19:42:48.439Z,61.26
2022-11-05T19:44:50.441Z,60.93
2022-11-05T19:46:52.840Z,61.27
2022-11-05T19:48:55.345Z,60.83
2022-11-05T19:50:57.689Z,61.28
2022-11-05T19:52:59.860Z,61.16
2022-11-05T19:55:01.846Z,60.91
2022-11-05T19:57:03.951Z,60.91
2022-11-05T19:59:08.876Z,60.98
2022-11-05T20:01:12.431Z,61.33
2022-11-05T20:03:14.728Z,61.28
2022-11-05T20:05:18.408Z,61.28
2022-11-05T20:07:20.523Z,61.10
2022-11-05T20:09:23.441Z,60.86
2022-11-05T20:11:25.418Z,60.71
2022-11-05T20:13:29.073Z,60.92
2022-11-05T20:15:30.946Z,61.08
2022-11-05T20:17:33.357Z,60.65
2022-11-05T20:19:35.684Z,60.68
2022-11-05T20:21:37.857Z,60.37
2022-11-05T20:23:40.042Z,60.29
2022-11-05T20:25:42.608Z,60.81
2022-11-05T20:27:44.610Z,60.76
2022-11-05T20:29:46.882Z,60.46
2022-11-05T20:31:52.938Z,60.57
2022-11-05T20:33:55.017Z,60.63
2022-11-05T20:36:01.786Z,60.99
2022-11-05T20:38:03.747Z,60.83
2022-11-05T20:40:06.533Z,60.76
2022-11-05T20:42:08.365Z,60.51
2022-11-05T20:44:10.465Z,60.66
2022-11-05T20:46:14.974Z,60.66
2022-11-05T20:48:16.706Z,60.83
2022-11-05T20:50:18.603Z,60.52
2022-11-05T20:52:20.624Z,60.30
2022-11-05T20:54:23.103Z,60.16
2022-11-05T20:56:28.320Z,60.07
2022-11-05T20:58:32.084Z,59.91
2022-11-05T21:00:34.233Z,59.93
2022-11-05T21:02:38.510Z,60.21
2022-11-05T21:04:40.854Z,60.51
2022-11-05T21:06:43.191Z,60.41
2022-11-05T21:08:48.816Z,60.61
2022-11-05T21:10:51.543Z,60.52
2022-11-05T21:12:53.811Z,60.55
2022-11-05T21:14:56.149Z,60.58
2022-11-05T21:16:58.126Z,60.61
2022-11-05T21:19:00.070Z,60.38
2022-11-05T21:21:09.089Z,60.61
2022-11-05T21:23:11.773Z,60.47
2022-11-05T21:25:14.295Z,60.26
2022-11-05T21:27:16.654Z,60.08
2022-11-05T21:29:18.877Z,60.52
2022-11-05T21:31:20.850Z,60.67
2022-11-05T21:33:23.252Z,60.28
2022-11-05T21:35:25.402Z,60.62
2022-11-05T21:37:27.421Z,60.78
2022-11-05T21:39:30.040Z,60.95
2022-11-05T21:41:32.099Z,60.92
2022-11-05T21:43:34.184Z,61.12
2022-11-05T21:45:42.087Z,61.48
2022-11-05T21:47:44.244Z,61.11
2022-11-05T21:49:46.285Z,61.26
2022-11-05T21:52:06.776Z,61.72
2022-11-05T21:54:29.441Z,61.67
2022-11-05T21:56:50.455Z,61.50
2022-11-05T21:59:11.586Z,61.71
2022-11-05T22:01:14.243Z,61.82
2022-11-05T22:03:16.224Z,61.68
2022-11-05T22:05:18.539Z,61.46
2022-11-05T22:07:29.074Z,62.08
2022-11-05T22:09:56.283Z,62.48
2022-11-05T22:11:58.452Z,61.80
2022-11-05T22:14:00.518Z,62.20
2022-11-05T22:16:02.619Z,62.47
2022-11-05T22:18:04.858Z,62.10
2022-11-05T22:20:08.517Z,62.36
2022-11-05T22:22:10.974Z,62.60
2022-11-05T22:24:13.711Z,62.59
2022-11-05T22:26:16.709Z,62.59
2022-11-05T22:28:18.654Z,62.57
2022-11-05T22:30:20.604Z,62.19
2022-11-05T22:32:22.871Z,62.03
2022-11-05T22:34:25.981Z,61.98
2022-11-05T22:36:28.185Z,62.09
2022-11-05T22:38:31.077Z,62.46
2022-11-05T22:40:33.254Z,62.31
2022-11-05T22:42:35.376Z,62.39
2022-11-05T22:44:37.637Z,62.35
2022-11-05T22:46:40.800Z,62.70
2022-11-05T22:48:43.949Z,62.17
2022-11-05T22:50:45.944Z,62.56
2022-11-05T22:52:47.865Z,62.35
2022-11-05T22:54:49.975Z,62.39
2022-11-05T22:56:53.555Z,62.38
2022-11-05T22:58:56.260Z,62.49
2022-11-05T23:00:58.683Z,62.89
2022-11-05T23:03:01.503Z,62.89
2022-11-05T23:05:04.001Z,62.53
2022-11-05T23:07:27.865Z,62.58
2022-11-05T23:09:55.135Z,62.83
2022-11-05T23:11:57.609Z,62.69
2022-11-05T23:13:59.615Z,62.67
2022-11-05T23:16:20.207Z,62.66
2022-11-05T23:18:40.728Z,62.60
2022-11-05T23:21:01.490Z,62.46
2022-11-05T23:23:22.109Z,63.01
2022-11-05T23:25:24.859Z,62.92
2022-11-05T23:27:34.385Z,62.95
2022-11-05T23:29:36.623Z,62.95
2022-11-05T23:31:59.076Z,62.90
2022-11-05T23:34:01.299Z,62.72
2022-11-05T23:36:22.286Z,62.83
2022-11-05T23:38:34.190Z,63.20
2022-11-05T23:40:56.247Z,62.78
2022-11-05T23:43:16.796Z,62.95
2022-11-05T23:45:37.601Z,63.07
2022-11-05T23:47:58.649Z,62.67
2022-11-05T23:50:00.583Z,62.38
2022-11-05T23:52:02.584Z,62.42
2022-11-05T23:54:05.049Z,62.56
2022-11-05T23:56:11.079Z,62.88
2022-11-05T23:58:13.294Z,62.73
